Time;durP1;ratioP1;P1;durP2;ratioP2;P2;SDS_P1;SDS_P2;PMS_P1;PMS_P2;Temp;Humidity;BMP_temperature;BMP_pressure;BME280_temperature;BME280_humidity;BME280_pressure;Samples;Min_cycle;Max_cycle;Signal;HPM_P1;HPM_P2
2023/04/15 00:01:38;;;;;;;7.50;2.28;;;12.10;66.10;;;;;;10026660;28;20156;-55
2023/04/15 00:06:29;;;;;;;7.22;1.70;;;11.90;66.50;;;;;;10031980;28;20404;-58
2023/04/15 00:11:33;;;;;;;3.58;2.17;;;11.90;67.40;;;;;;10131054;28;20386;-56
2023/04/15 00:16:24;;;;;;;8.02;2.38;;;11.60;66.70;;;;;;10130983;28;20025;-58
2023/04/15 00:21:15;;;;;;;3.80;2.22;;;11.40;67.10;;;;;;10128945;28;20040;-59
2023/04/15 00:26:06;;;;;;;5.38;2.35;;;11.20;67.30;;;;;;10106764;28;20077;-60
2023/04/15 00:30:57;;;;;;;3.50;2.40;;;11.20;67.20;;;;;;10130940;28;20029;-59
2023/04/15 00:35:47;;;;;;;4.32;2.50;;;11.40;67.30;;;;;;10133102;28;20025;-60
2023/04/15 00:40:38;;;;;;;3.42;1.95;;;11.30;67.50;;;;;;10131075;28;20546;-58
2023/04/15 00:45:29;;;;;;;3.60;1.70;;;11.30;67.80;;;;;;10132259;28;20490;-58
2023/04/15 00:50:20;;;;;;;4.65;1.80;;;11.30;67.60;;;;;;10133028;28;20036;-57
2023/04/15 00:55:11;;;;;;;7.13;2.05;;;11.20;68.20;;;;;;10140531;28;20016;-55
2023/04/15 01:00:04;;;;;;;5.20;2.17;;;11.00;68.70;;;;;;10133481;28;20033;-57
2023/04/15 01:04:55;;;;;;;4.07;2.20;;;11.10;68.50;;;;;;10130546;28;20582;-54
2023/04/15 01:09:46;;;;;;;3.67;1.98;;;11.20;68.50;;;;;;10112649;28;20080;-54
2023/04/15 01:14:37;;;;;;;7.70;2.22;;;11.20;68.40;;;;;;10131624;28;20025;-57
2023/04/15 01:19:28;;;;;;;7.30;2.30;;;11.10;68.50;;;;;;10120966;28;20044;-57
2023/04/15 01:24:19;;;;;;;3.75;2.35;;;11.10;68.40;;;;;;10091081;28;20395;-56
2023/04/15 01:29:09;;;;;;;3.38;1.75;;;11.00;68.70;;;;;;10104364;28;20045;-55
2023/04/15 01:34:00;;;;;;;4.43;2.17;;;11.00;68.70;;;;;;10097036;28;20025;-55
2023/04/15 01:38:51;;;;;;;2.75;2.22;;;10.90;69.00;;;;;;10093515;28;20529;-56
2023/04/15 01:43:41;;;;;;;2.80;1.88;;;10.90;69.00;;;;;;10103336;28;20102;-57
2023/04/15 01:48:32;;;;;;;4.70;2.97;;;10.90;68.90;;;;;;10105400;28;20045;-59
2023/04/15 01:53:24;;;;;;;3.03;1.80;;;10.80;69.00;;;;;;10102801;28;20124;-56
2023/04/15 01:58:15;;;;;;;3.90;2.40;;;10.80;69.30;;;;;;10102546;28;20037;-55
2023/04/15 02:03:05;;;;;;;6.22;2.40;;;10.80;69.50;;;;;;10102870;28;20121;-57
2023/04/15 02:07:56;;;;;;;4.15;2.10;;;10.80;69.60;;;;;;10102010;28;20053;-57
2023/04/15 02:12:47;;;;;;;5.38;2.17;;;10.80;69.70;;;;;;10101116;28;20025;-60
2023/04/15 02:17:38;;;;;;;5.63;2.55;;;10.60;70.10;;;;;;10102039;28;20025;-57
2023/04/15 02:22:29;;;;;;;7.32;2.63;;;10.50;70.50;;;;;;10100212;28;20506;-56
2023/04/15 02:27:21;;;;;;;5.75;3.63;;;10.40;70.80;;;;;;10101392;28;20025;-57
2023/04/15 02:32:12;;;;;;;6.72;3.22;;;10.40;71.20;;;;;;10087273;28;20072;-54
2023/04/15 02:37:03;;;;;;;7.00;2.78;;;10.20;71.70;;;;;;10101296;28;20028;-58
2023/04/15 02:41:54;;;;;;;6.00;2.42;;;10.30;71.80;;;;;;10101482;28;20035;-55
2023/04/15 02:46:51;;;;;;;5.30;2.60;;;10.30;71.90;;;;;;10101834;28;20418;-55
2023/04/15 02:51:41;;;;;;;4.53;2.35;;;10.30;72.10;;;;;;10100394;28;20071;-59
2023/04/15 02:56:32;;;;;;;6.65;2.10;;;10.30;72.40;;;;;;10100190;28;20021;-55
2023/04/15 03:01:23;;;;;;;4.88;2.75;;;10.30;72.70;;;;;;10098618;28;20501;-56
2023/04/15 03:06:13;;;;;;;4.10;2.78;;;10.40;72.70;;;;;;10093026;28;20030;-58
2023/04/15 03:11:04;;;;;;;7.22;3.28;;;10.30;73.00;;;;;;10091946;28;20049;-58
2023/04/15 03:15:55;;;;;;;5.63;2.65;;;10.30;73.30;;;;;;10095458;28;20037;-58
2023/04/15 03:20:45;;;;;;;4.97;2.47;;;10.30;73.70;;;;;;10091358;28;20037;-61
2023/04/15 03:25:36;;;;;;;4.40;2.65;;;10.30;74.00;;;;;;10100980;28;20052;-59
2023/04/15 03:30:27;;;;;;;6.63;2.65;;;10.30;74.10;;;;;;10094642;28;20040;-57
2023/04/15 03:35:18;;;;;;;6.53;3.55;;;10.30;74.30;;;;;;10092923;28;20144;-60
2023/04/15 03:40:09;;;;;;;6.55;2.95;;;10.20;74.30;;;;;;10099200;28;20444;-56
2023/04/15 03:44:59;;;;;;;5.60;3.22;;;10.10;75.00;;;;;;10098705;28;20039;-57
2023/04/15 03:49:50;;;;;;;4.47;2.72;;;10.20;74.90;;;;;;10101477;28;20040;-57
2023/04/15 03:54:41;;;;;;;5.22;2.63;;;10.20;75.10;;;;;;10091422;28;20040;-58
2023/04/15 03:59:31;;;;;;;5.65;2.55;;;10.30;75.20;;;;;;10098128;28;20066;-57
2023/04/15 04:04:22;;;;;;;3.95;2.97;;;10.20;75.40;;;;;;10098545;28;20496;-57
2023/04/15 04:09:13;;;;;;;4.85;2.83;;;10.10;75.70;;;;;;10098520;28;20056;-58
2023/04/15 04:14:03;;;;;;;6.47;2.10;;;10.20;75.80;;;;;;10097969;28;20061;-58
2023/04/15 04:18:54;;;;;;;6.68;3.53;;;10.20;75.80;;;;;;10096884;28;20333;-57
2023/04/15 04:23:45;;;;;;;6.40;2.70;;;10.20;75.80;;;;;;10103011;28;20037;-61
2023/04/15 04:28:35;;;;;;;5.75;2.22;;;10.30;76.00;;;;;;10096154;28;20502;-59
2023/04/15 04:33:26;;;;;;;5.82;2.80;;;10.30;76.20;;;;;;10086551;28;20487;-56
2023/04/15 04:38:17;;;;;;;5.32;2.63;;;10.30;76.30;;;;;;10097782;28;20044;-57
2023/04/15 04:43:08;;;;;;;3.83;2.47;;;10.30;76.50;;;;;;10097833;28;20029;-57
2023/04/15 04:47:58;;;;;;;4.20;2.00;;;10.20;76.80;;;;;;10102277;28;20068;-56
2023/04/15 04:52:50;;;;;;;6.50;3.75;;;10.10;77.50;;;;;;10097190;28;20021;-56
2023/04/15 04:57:41;;;;;;;6.35;3.05;;;10.20;77.30;;;;;;10103386;28;20581;-57
2023/04/15 05:02:31;;;;;;;3.22;2.38;;;10.10;77.50;;;;;;10103051;28;20101;-55
2023/04/15 05:07:22;;;;;;;7.38;3.20;;;10.20;77.80;;;;;;10087199;28;20475;-55
2023/04/15 05:12:14;;;;;;;7.78;3.20;;;10.20;77.90;;;;;;10103715;28;20430;-57
2023/04/15 05:17:04;;;;;;;5.35;3.63;;;10.40;77.90;;;;;;10103448;28;20025;-56
2023/04/15 05:21:55;;;;;;;6.38;2.88;;;10.30;78.30;;;;;;10100860;28;20032;-56
2023/04/15 05:26:45;;;;;;;6.90;3.10;;;10.30;78.40;;;;;;10103937;28;20029;-56
2023/04/15 05:31:36;;;;;;;3.15;2.10;;;10.50;78.30;;;;;;10093118;28;20087;-58
2023/04/15 05:36:27;;;;;;;4.68;2.17;;;10.40;78.60;;;;;;10103887;28;20121;-56
2023/04/15 05:41:18;;;;;;;2.80;1.65;;;10.40;79.00;;;;;;10104031;28;20102;-56
2023/04/15 05:46:08;;;;;;;3.20;1.70;;;10.40;79.20;;;;;;10103880;28;20368;-57
2023/04/15 05:51:00;;;;;;;3.85;1.98;;;10.50;79.50;;;;;;10103780;28;20144;-58
2023/04/15 05:55:50;;;;;;;4.78;2.35;;;10.60;79.50;;;;;;10092283;28;20026;-57
2023/04/15 06:00:41;;;;;;;7.07;2.33;;;10.60;79.70;;;;;;10101905;28;20033;-56
2023/04/15 06:05:32;;;;;;;3.42;2.42;;;10.70;80.00;;;;;;10103194;28;20118;-58
2023/04/15 06:10:22;;;;;;;9.27;2.38;;;10.70;80.00;;;;;;10085136;28;20522;-58
2023/04/15 06:15:13;;;;;;;2.72;1.55;;;10.80;79.90;;;;;;10100672;28;20199;-55
2023/04/15 06:20:04;;;;;;;5.97;1.98;;;10.80;79.70;;;;;;10090143;28;20021;-58
2023/04/15 06:24:55;;;;;;;5.47;2.45;;;10.90;79.70;;;;;;10100092;28;20067;-58
2023/04/15 06:29:46;;;;;;;2.95;1.92;;;11.00;79.70;;;;;;10102097;28;20044;-59
2023/04/15 06:34:36;;;;;;;9.57;2.97;;;10.90;80.00;;;;;;10090785;28;20044;-57
2023/04/15 06:39:27;;;;;;;3.80;2.70;;;10.80;79.90;;;;;;10101079;28;20031;-57
2023/04/15 06:44:18;;;;;;;7.13;3.83;;;10.60;81.30;;;;;;10093510;28;20483;-57
2023/04/15 06:49:08;;;;;;;6.25;3.08;;;10.50;82.00;;;;;;10102417;28;20045;-59
2023/04/15 06:53:59;;;;;;;8.63;3.72;;;10.30;83.00;;;;;;10097878;28;20446;-58
2023/04/15 06:58:50;;;;;;;5.63;2.80;;;10.50;83.00;;;;;;10099179;28;20507;-57
2023/04/15 07:03:40;;;;;;;7.93;3.15;;;10.50;83.10;;;;;;10099754;28;20048;-60
2023/04/15 07:08:32;;;;;;;3.78;2.70;;;10.70;83.00;;;;;;10093602;28;20470;-56
2023/04/15 07:13:23;;;;;;;6.57;3.28;;;10.60;83.60;;;;;;10086390;28;20036;-59
2023/04/15 07:18:13;;;;;;;5.57;2.80;;;10.70;84.50;;;;;;10099381;28;20052;-58
2023/04/15 07:23:04;;;;;;;6.47;3.35;;;11.10;83.50;;;;;;10101715;28;20032;-58
2023/04/15 07:27:55;;;;;;;4.90;2.78;;;11.10;83.70;;;;;;10098824;28;20029;-58
2023/04/15 07:32:45;;;;;;;6.20;2.72;;;11.00;84.10;;;;;;10088496;28;20341;-57
2023/04/15 07:37:36;;;;;;;7.82;2.47;;;11.10;84.00;;;;;;10098991;28;20410;-61
2023/04/15 07:42:28;;;;;;;3.33;2.30;;;11.10;83.90;;;;;;10099146;28;20033;-60
2023/04/15 07:47:18;;;;;;;3.65;2.20;;;11.40;83.60;;;;;;10100888;28;20495;-58
2023/04/15 07:52:09;;;;;;;3.80;1.85;;;11.50;83.20;;;;;;10097707;28;20041;-55
2023/04/15 07:57:00;;;;;;;3.00;1.63;;;11.70;82.90;;;;;;10082082;28;20030;-58
2023/04/15 08:01:51;;;;;;;3.20;1.95;;;11.90;82.60;;;;;;10094525;28;20036;-56
2023/04/15 08:06:41;;;;;;;8.90;2.13;;;12.10;82.20;;;;;;10091564;28;20025;-57
2023/04/15 08:11:32;;;;;;;3.05;1.73;;;12.20;82.00;;;;;;10052636;28;20128;-59
2023/04/15 08:16:24;;;;;;;2.10;1.33;;;12.20;82.10;;;;;;10057004;28;20476;-60
2023/04/15 08:21:16;;;;;;;2.38;1.52;;;12.30;82.10;;;;;;10055247;28;20032;-60
2023/04/15 08:26:07;;;;;;;3.42;1.55;;;12.50;81.70;;;;;;10056204;28;20034;-58
2023/04/15 08:30:58;;;;;;;3.25;2.20;;;12.60;81.60;;;;;;10054211;28;20049;-54
2023/04/15 08:35:48;;;;;;;6.57;2.00;;;12.70;81.40;;;;;;10063595;28;20047;-59
2023/04/15 08:40:41;;;;;;;6.45;2.10;;;12.80;81.30;;;;;;10061509;28;20021;-60
2023/04/15 08:45:33;;;;;;;3.13;1.98;;;12.60;82.00;;;;;;10063874;28;20032;-57
2023/04/15 08:50:25;;;;;;;5.72;2.70;;;12.50;82.80;;;;;;10062244;28;20044;-60
2023/04/15 08:55:16;;;;;;;4.32;2.38;;;12.50;83.00;;;;;;10040332;28;20017;-58
2023/04/15 09:00:08;;;;;;;4.95;3.03;;;12.60;82.80;;;;;;10063422;28;20508;-56
2023/04/15 09:04:58;;;;;;;8.10;4.63;;;12.70;82.70;;;;;;10063197;28;20055;-58
2023/04/15 09:09:50;;;;;;;4.03;3.13;;;12.80;82.50;;;;;;10085380;28;20049;-57
2023/04/15 09:14:41;;;;;;;5.65;2.25;;;12.90;82.50;;;;;;10093532;28;20044;-57
2023/04/15 09:19:34;;;;;;;5.10;2.60;;;13.10;82.40;;;;;;10090830;28;20040;-55
2023/04/15 09:24:36;;;;;;;3.13;1.70;;;13.10;82.40;;;;;;10102093;28;20067;-56
2023/04/15 09:29:27;;;;;;;3.40;1.63;;;13.40;82.20;;;;;;10100813;28;20075;-58
2023/04/15 09:34:18;;;;;;;4.20;2.55;;;13.30;82.40;;;;;;10100703;28;20036;-54
2023/04/15 09:39:08;;;;;;;5.00;2.42;;;13.40;82.40;;;;;;10098382;28;20045;-56
2023/04/15 09:43:59;;;;;;;4.38;1.88;;;13.60;82.10;;;;;;10097800;28;20021;-58
2023/04/15 09:49:07;;;;;;;3.78;1.63;;;13.70;82.10;;;;;;10103524;28;20041;-58
2023/04/15 09:53:58;;;;;;;2.47;1.67;;;14.00;82.00;;;;;;10081312;28;20044;-56
2023/04/15 09:58:55;;;;;;;2.50;1.60;;;14.20;81.50;;;;;;10102926;28;20388;-58
2023/04/15 10:03:46;;;;;;;4.05;1.60;;;14.20;81.60;;;;;;10099244;28;20498;-55
2023/04/15 10:08:38;;;;;;;4.88;1.75;;;14.40;81.40;;;;;;10100954;28;20075;-58
2023/04/15 10:13:33;;;;;;;4.32;1.58;;;14.50;81.30;;;;;;10099208;28;20047;-55
2023/04/15 10:18:31;;;;;;;3.70;2.20;;;14.80;80.80;;;;;;10096567;28;20052;-57
2023/04/15 10:23:23;;;;;;;4.93;2.63;;;14.70;80.80;;;;;;10096324;28;20533;-56
2023/04/15 10:28:15;;;;;;;3.35;1.63;;;14.70;80.50;;;;;;10087902;28;20037;-53
2023/04/15 10:33:08;;;;;;;3.40;1.13;;;14.70;80.40;;;;;;10095437;28;20476;-59
2023/04/15 10:37:59;;;;;;;5.65;1.52;;;14.90;80.00;;;;;;10086502;28;20464;-53
2023/04/15 10:42:50;;;;;;;3.03;1.52;;;14.90;79.50;;;;;;10084515;28;20036;-55
2023/04/15 10:47:42;;;;;;;6.85;2.35;;;15.20;79.40;;;;;;10078713;28;20066;-57
2023/04/15 10:52:33;;;;;;;3.83;2.65;;;15.40;79.20;;;;;;10092333;28;20514;-56
2023/04/15 10:57:24;;;;;;;2.90;1.85;;;15.30;78.70;;;;;;10099285;28;20039;-57
2023/04/15 11:02:14;;;;;;;4.05;1.30;;;15.30;78.80;;;;;;10091313;28;20124;-58
2023/04/15 11:07:05;;;;;;;1.90;1.33;;;15.50;78.60;;;;;;10098359;28;20037;-57
2023/04/15 11:12:07;;;;;;;5.95;2.15;;;15.70;78.10;;;;;;10098997;28;20028;-56
2023/04/15 11:16:58;;;;;;;3.50;1.52;;;15.70;77.30;;;;;;10097429;28;20480;-55
2023/04/15 11:21:48;;;;;;;5.35;1.45;;;15.80;77.20;;;;;;10094691;28;20036;-59
2023/04/15 11:26:39;;;;;;;4.30;1.67;;;15.80;75.60;;;;;;10095021;28;20070;-62
2023/04/15 11:31:30;;;;;;;2.03;1.33;;;15.90;75.60;;;;;;10087888;28;20078;-58
2023/04/15 11:36:26;;;;;;;3.97;1.00;;;16.20;74.70;;;;;;10095061;28;20036;-54
2023/04/15 11:41:20;;;;;;;3.55;0.90;;;16.40;73.80;;;;;;10090509;28;20176;-53
2023/04/15 11:46:11;;;;;;;2.15;1.08;;;16.60;72.50;;;;;;10093372;28;20034;-54
2023/04/15 11:51:06;;;;;;;1.75;1.17;;;16.90;72.10;;;;;;10093434;28;20135;-55
2023/04/15 11:55:57;;;;;;;1.45;0.88;;;17.20;71.30;;;;;;10083328;28;20379;-55
2023/04/15 12:00:53;;;;;;;1.88;0.88;;;17.10;70.80;;;;;;10097305;28;20041;-55
2023/04/15 12:06:02;;;;;;;1.67;0.93;;;17.50;70.20;;;;;;10094719;28;20279;-59
2023/04/15 12:10:58;;;;;;;2.78;1.25;;;17.60;69.30;;;;;;10085375;28;20053;-59
2023/04/15 12:15:49;;;;;;;2.78;1.10;;;17.30;69.20;;;;;;10090208;28;20052;-59
2023/04/15 12:20:46;;;;;;;4.47;1.58;;;17.00;69.30;;;;;;10095059;28;20029;-54
2023/04/15 12:25:36;;;;;;;2.30;1.42;;;17.40;68.60;;;;;;10094375;28;20020;-53
2023/04/15 12:30:27;;;;;;;2.95;1.40;;;17.70;68.10;;;;;;10084925;28;20045;-58
2023/04/15 12:35:20;;;;;;;2.35;1.00;;;18.20;68.20;;;;;;10093592;28;20430;-56
2023/04/15 12:40:11;;;;;;;2.30;1.20;;;18.30;67.40;;;;;;10087863;28;20032;-58
2023/04/15 12:45:01;;;;;;;1.50;1.00;;;18.20;67.00;;;;;;10101595;28;20418;-53
2023/04/15 12:49:52;;;;;;;1.30;0.80;;;18.50;66.70;;;;;;10096987;28;20037;-52
2023/04/15 12:54:43;;;;;;;1.65;0.90;;;18.20;65.60;;;;;;10096573;28;20483;-52
2023/04/15 12:59:34;;;;;;;1.45;0.75;;;18.20;65.00;;;;;;10094019;28;20104;-54
2023/04/15 13:04:29;;;;;;;3.38;0.90;;;18.20;64.60;;;;;;10060724;28;20044;-53
2023/04/15 13:09:20;;;;;;;1.95;1.00;;;19.00;64.10;;;;;;10065128;28;20049;-53
2023/04/15 13:14:11;;;;;;;3.22;1.10;;;20.00;63.40;;;;;;10066545;28;20025;-55
2023/04/15 13:19:03;;;;;;;1.45;0.93;;;19.80;62.90;;;;;;10076780;28;20636;-52
2023/04/15 13:23:53;;;;;;;3.25;1.35;;;20.20;62.50;;;;;;10079890;28;20025;-52
2023/04/15 13:28:45;;;;;;;3.78;1.60;;;20.40;61.90;;;;;;10080855;28;20531;-55
2023/04/15 13:33:35;;;;;;;3.25;1.20;;;21.30;61.10;;;;;;10069222;28;20072;-54
2023/04/15 13:38:26;;;;;;;2.60;1.58;;;21.50;61.30;;;;;;10092262;28;20570;-54
2023/04/15 13:43:16;;;;;;;2.10;1.33;;;20.60;60.90;;;;;;10080632;28;20041;-52
2023/04/15 13:48:07;;;;;;;2.38;1.60;;;22.30;60.10;;;;;;10064124;28;20177;-55
2023/04/15 13:52:58;;;;;;;3.80;1.15;;;24.10;58.80;;;;;;10076684;28;20041;-52
2023/04/15 13:57:49;;;;;;;1.02;0.90;;;22.60;58.90;;;;;;10079303;28;20078;-55
2023/04/15 14:02:41;;;;;;;3.15;1.00;;;21.80;58.70;;;;;;10083660;28;20108;-51
2023/04/15 14:07:31;;;;;;;3.72;1.42;;;20.40;59.20;;;;;;10071818;28;20045;-51
2023/04/15 14:12:22;;;;;;;2.95;1.83;;;19.40;59.40;;;;;;10074431;28;20041;-50
2023/04/15 14:17:13;;;;;;;4.03;1.73;;;19.20;59.30;;;;;;10075243;28;20029;-51
2023/04/15 14:22:04;;;;;;;1.80;1.33;;;19.80;58.80;;;;;;10078049;28;20419;-54
2023/04/15 14:26:55;;;;;;;2.50;1.33;;;20.20;58.80;;;;;;10082491;28;20419;-59
2023/04/15 14:31:47;;;;;;;2.40;1.38;;;20.10;58.90;;;;;;10066463;28;20049;-54
2023/04/15 14:36:38;;;;;;;2.30;1.50;;;20.30;58.90;;;;;;10070876;28;20105;-51
2023/04/15 14:41:29;;;;;;;3.25;1.30;;;19.60;58.90;;;;;;10076761;28;20107;-59
2023/04/15 14:46:20;;;;;;;2.33;1.27;;;19.60;58.90;;;;;;10075321;28;20087;-57
2023/04/15 14:51:10;;;;;;;2.88;1.25;;;19.30;58.70;;;;;;10072013;28;20520;-58
2023/04/15 14:56:01;;;;;;;3.92;1.17;;;18.60;59.20;;;;;;10073503;28;20029;-51
2023/04/15 15:00:52;;;;;;;1.73;1.23;;;18.30;59.90;;;;;;10080007;28;20022;-51
2023/04/15 15:05:45;;;;;;;1.77;1.25;;;18.20;59.90;;;;;;10067106;28;20033;-51
2023/04/15 15:10:36;;;;;;;3.83;1.50;;;18.20;60.00;;;;;;10069672;28;20511;-54
2023/04/15 15:15:26;;;;;;;3.92;1.42;;;18.40;59.70;;;;;;10064677;28;20029;-52
2023/04/15 15:20:18;;;;;;;2.63;1.10;;;18.70;59.30;;;;;;10073104;28;20037;-56
2023/04/15 15:25:08;;;;;;;4.05;1.10;;;18.60;58.90;;;;;;10068951;28;20061;-50
2023/04/15 15:29:59;;;;;;;2.40;1.95;;;18.30;59.00;;;;;;10082002;28;20088;-49
2023/04/15 15:34:50;;;;;;;1.95;0.93;;;17.90;58.60;;;;;;10079625;28;20021;-50
2023/04/15 15:39:41;;;;;;;2.55;1.25;;;18.00;58.10;;;;;;10070255;28;20033;-49
2023/04/15 15:44:32;;;;;;;2.95;1.23;;;18.40;57.60;;;;;;10076752;28;20462;-50
2023/04/15 15:49:24;;;;;;;1.70;0.80;;;18.60;56.70;;;;;;10068015;28;20401;-52
2023/04/15 15:54:15;;;;;;;3.25;1.30;;;19.00;56.20;;;;;;10079194;28;20155;-53
2023/04/15 15:59:05;;;;;;;2.33;1.02;;;18.90;55.70;;;;;;10090077;28;20534;-54
2023/04/15 16:03:56;;;;;;;2.85;2.13;;;18.10;55.60;;;;;;10069121;28;20017;-49
2023/04/15 16:08:47;;;;;;;2.15;1.08;;;17.50;55.30;;;;;;10065360;28;20059;-52
2023/04/15 16:13:37;;;;;;;3.40;0.95;;;17.30;54.80;;;;;;10059160;28;20072;-50
2023/04/15 16:18:28;;;;;;;1.63;0.98;;;17.20;54.30;;;;;;10073594;28;20025;-51
2023/04/15 16:23:19;;;;;;;1.85;1.00;;;17.00;54.10;;;;;;10093994;28;20067;-53
2023/04/15 16:28:10;;;;;;;2.55;0.90;;;16.90;54.20;;;;;;10093956;28;20128;-51
2023/04/15 16:33:01;;;;;;;1.92;0.77;;;16.90;54.20;;;;;;10067575;28;20071;-57
2023/04/15 16:37:51;;;;;;;2.15;0.93;;;16.80;54.50;;;;;;10075569;28;20044;-52
2023/04/15 16:42:42;;;;;;;1.73;1.00;;;16.80;54.90;;;;;;10071383;28;20070;-54
2023/04/15 16:47:33;;;;;;;1.73;1.00;;;16.70;55.30;;;;;;10063237;28;20025;-48
2023/04/15 16:52:23;;;;;;;2.83;1.35;;;16.50;56.00;;;;;;10066426;28;20524;-52
2023/04/15 16:57:14;;;;;;;2.60;1.20;;;16.40;56.50;;;;;;10075024;28;20033;-51
2023/04/15 17:02:05;;;;;;;1.33;0.80;;;16.30;56.70;;;;;;10086417;28;20029;-51
2023/04/15 17:06:55;;;;;;;1.75;1.00;;;16.20;56.90;;;;;;10065442;28;20057;-53
2023/04/15 17:11:47;;;;;;;2.88;1.70;;;16.30;57.20;;;;;;10080019;28;20040;-54
2023/04/15 17:16:37;;;;;;;1.98;1.10;;;16.20;57.60;;;;;;10076623;28;20033;-50
2023/04/15 17:21:28;;;;;;;3.72;1.20;;;16.10;58.30;;;;;;10103240;28;20033;-53
2023/04/15 17:26:19;;;;;;;6.80;1.70;;;16.00;59.30;;;;;;10073366;28;20037;-53
2023/04/15 17:31:10;;;;;;;3.97;1.80;;;16.00;60.70;;;;;;10070898;28;20519;-56
2023/04/15 17:36:00;;;;;;;2.22;1.58;;;15.80;61.80;;;;;;10078249;28;20025;-53
2023/04/15 17:40:51;;;;;;;4.75;3.00;;;15.70;62.80;;;;;;10068963;28;20083;-52
2023/04/15 17:45:42;;;;;;;5.97;2.10;;;15.60;63.30;;;;;;10104599;28;20104;-49
2023/04/15 17:50:33;;;;;;;2.92;2.03;;;15.60;63.90;;;;;;10094966;28;20037;-51
2023/04/15 17:55:24;;;;;;;2.55;2.30;;;15.60;64.30;;;;;;10100122;28;20021;-53
2023/04/15 18:00:16;;;;;;;4.03;2.80;;;15.50;64.70;;;;;;10091229;28;20033;-50
2023/04/15 18:05:07;;;;;;;2.35;2.15;;;15.50;65.40;;;;;;10080681;28;20079;-53
2023/04/15 18:09:57;;;;;;;1.45;1.00;;;15.20;67.40;;;;;;10083590;28;20067;-53
2023/04/15 18:14:48;;;;;;;3.05;1.15;;;14.90;68.90;;;;;;10077871;28;20020;-51
2023/04/15 18:19:39;;;;;;;1.63;0.73;;;14.70;69.90;;;;;;10078638;28;20095;-50
2023/04/15 18:24:30;;;;;;;3.42;1.20;;;14.70;70.50;;;;;;10076812;28;20025;-55
2023/04/15 18:29:21;;;;;;;2.05;1.10;;;14.70;70.60;;;;;;10083700;28;20063;-51
2023/04/15 18:34:14;;;;;;;1.88;1.42;;;14.50;71.70;;;;;;10077907;28;20032;-58
2023/04/15 18:39:04;;;;;;;1.80;1.02;;;14.40;72.60;;;;;;10085117;28;20033;-60
2023/04/15 18:43:55;;;;;;;2.47;1.35;;;14.30;73.30;;;;;;10087920;28;20033;-57
2023/04/15 18:48:46;;;;;;;2.67;1.13;;;14.60;73.20;;;;;;10081660;28;20063;-52
2023/04/15 18:53:37;;;;;;;2.42;1.10;;;14.80;73.00;;;;;;10074789;28;20029;-50
2023/04/15 18:58:28;;;;;;;1.90;1.13;;;14.80;73.60;;;;;;10070489;28;20454;-53
2023/04/15 19:03:18;;;;;;;4.82;1.65;;;14.70;74.20;;;;;;10095922;28;20040;-55
2023/04/15 19:08:09;;;;;;;3.47;2.22;;;14.50;74.80;;;;;;10074750;28;20129;-57
2023/04/15 19:13:00;;;;;;;1.20;1.00;;;14.50;75.20;;;;;;10077233;28;20039;-58
2023/04/15 19:17:51;;;;;;;1.80;0.90;;;14.50;75.70;;;;;;10078862;28;20051;-59
2023/04/15 19:22:42;;;;;;;2.92;1.23;;;14.20;77.60;;;;;;10080735;28;20029;-58
2023/04/15 19:27:32;;;;;;;2.15;1.20;;;14.20;77.90;;;;;;10059299;28;20029;-57
2023/04/15 19:32:23;;;;;;;3.45;1.27;;;14.20;78.70;;;;;;10062427;28;20067;-59
2023/04/15 19:37:14;;;;;;;3.63;1.20;;;14.10;79.70;;;;;;10079755;28;20395;-55
2023/04/15 19:42:05;;;;;;;2.78;1.52;;;13.90;80.50;;;;;;10080453;28;20029;-59
2023/04/15 19:46:56;;;;;;;2.17;1.38;;;14.00;81.00;;;;;;10068112;28;20093;-54
2023/04/15 19:51:48;;;;;;;3.33;1.20;;;13.80;81.50;;;;;;10081138;28;20083;-56
2023/04/15 19:56:39;;;;;;;2.53;1.17;;;13.80;82.20;;;;;;10076508;28;20071;-54
2023/04/15 20:01:30;;;;;;;1.48;1.23;;;13.70;82.80;;;;;;10079712;28;20083;-54
2023/04/15 20:06:21;;;;;;;2.72;1.50;;;13.70;83.30;;;;;;10068866;28;20071;-55
2023/04/15 20:11:12;;;;;;;3.38;1.63;;;13.80;83.50;;;;;;10090548;28;20111;-57
2023/04/15 20:16:06;;;;;;;2.58;1.25;;;13.60;84.20;;;;;;10081134;28;20025;-58
2023/04/15 20:20:57;;;;;;;3.08;1.90;;;13.60;84.60;;;;;;10084141;28;20029;-55
2023/04/15 20:25:47;;;;;;;1.95;1.23;;;13.80;85.10;;;;;;10082266;28;20037;-57
2023/04/15 20:30:38;;;;;;;2.90;1.00;;;13.80;85.40;;;;;;10093268;28;20396;-57
2023/04/15 20:35:29;;;;;;;2.30;1.25;;;13.60;86.30;;;;;;10099647;28;20028;-58
2023/04/15 20:40:20;;;;;;;2.78;1.40;;;13.50;86.90;;;;;;10112134;28;20408;-57
2023/04/15 20:45:11;;;;;;;2.10;1.40;;;13.40;87.60;;;;;;10100141;28;20028;-58
2023/04/15 20:50:02;;;;;;;3.75;1.45;;;13.40;88.30;;;;;;10097511;28;20053;-56
2023/04/15 20:54:53;;;;;;;3.65;1.60;;;13.40;88.80;;;;;;10101704;28;20017;-59
2023/04/15 20:59:43;;;;;;;2.25;1.67;;;13.40;89.90;;;;;;10095984;28;20115;-58
2023/04/15 21:04:34;;;;;;;2.08;1.67;;;13.30;90.10;;;;;;10092244;28;20498;-57
2023/04/15 21:09:25;;;;;;;7.10;3.63;;;13.30;90.30;;;;;;10094642;28;20506;-61
2023/04/15 21:14:16;;;;;;;3.50;2.40;;;13.20;90.50;;;;;;10089511;28;20300;-61
2023/04/15 21:19:06;;;;;;;2.75;2.08;;;13.20;90.70;;;;;;10083964;28;20025;-60
2023/04/15 21:24:00;;;;;;;4.38;2.58;;;13.10;91.00;;;;;;10080814;28;20025;-61
2023/04/15 21:28:51;;;;;;;4.93;2.63;;;12.90;91.20;;;;;;10072477;28;20040;-58
2023/04/15 21:33:42;;;;;;;5.15;3.78;;;12.70;91.40;;;;;;10077647;28;20021;-58
2023/04/15 21:38:32;;;;;;;5.97;3.75;;;12.70;91.60;;;;;;10096586;28;20028;-59
2023/04/15 21:43:24;;;;;;;7.03;4.95;;;12.80;91.60;;;;;;10100965;28;20056;-60
2023/04/15 21:48:15;;;;;;;6.82;3.75;;;12.50;92.10;;;;;;10085843;28;20037;-61
2023/04/15 21:53:07;;;;;;;8.10;5.00;;;12.50;92.30;;;;;;10081344;28;20038;-61
2023/04/15 21:57:58;;;;;;;6.72;4.60;;;12.30;92.50;;;;;;10091476;28;20380;-56
2023/04/15 22:02:49;;;;;;;9.48;5.50;;;12.50;92.70;;;;;;10086339;28;20375;-57
2023/04/15 22:07:40;;;;;;;9.07;6.07;;;12.20;93.10;;;;;;10076458;28;20048;-55
2023/04/15 22:12:30;;;;;;;9.82;5.78;;;12.10;93.50;;;;;;10071684;28;20423;-59
2023/04/15 22:17:21;;;;;;;9.63;6.32;;;12.10;93.70;;;;;;10085522;28;20561;-57
2023/04/15 22:22:12;;;;;;;15.52;6.93;;;12.10;93.80;;;;;;10091790;28;20067;-56
2023/04/15 22:27:02;;;;;;;9.00;5.60;;;12.10;93.90;;;;;;10084680;28;20419;-55
2023/04/15 22:31:53;;;;;;;10.35;6.28;;;12.20;94.10;;;;;;10084200;28;20100;-58
2023/04/15 22:36:44;;;;;;;8.98;5.78;;;12.30;94.20;;;;;;10086336;28;20036;-56
2023/04/15 22:41:34;;;;;;;8.77;5.47;;;11.90;94.70;;;;;;10084528;28;20108;-54
2023/04/15 22:46:25;;;;;;;9.15;5.95;;;12.20;94.70;;;;;;10086697;28;20044;-59
2023/04/15 22:51:21;;;;;;;11.60;7.65;;;11.80;95.00;;;;;;10082302;28;20034;-58
2023/04/15 22:56:11;;;;;;;;;;;12.00;95.30;;;;;;10078460;28;20448;-57
2023/04/15 23:01:02;;;;;;;6.60;4.18;;;12.00;95.50;;;;;;10087298;28;20003;-57
2023/04/15 23:05:53;;;;;;;6.25;4.25;;;12.00;95.50;;;;;;10095720;28;20518;-55
2023/04/15 23:10:43;;;;;;;6.50;3.92;;;11.90;95.60;;;;;;10088905;28;20130;-55
2023/04/15 23:15:34;;;;;;;5.05;3.55;;;11.80;96.00;;;;;;10091894;28;20029;-58
2023/04/15 23:20:25;;;;;;;4.15;2.92;;;11.70;96.30;;;;;;10087045;28;20037;-57
2023/04/15 23:25:16;;;;;;;4.03;3.00;;;11.90;96.50;;;;;;10083969;28;20040;-53
2023/04/15 23:30:07;;;;;;;5.53;3.35;;;11.80;96.90;;;;;;10088730;28;20037;-56
2023/04/15 23:34:57;;;;;;;9.05;4.43;;;11.80;97.20;;;;;;10087492;28;20460;-52
2023/04/15 23:39:48;;;;;;;9.45;4.40;;;11.80;97.60;;;;;;10099368;28;20108;-53
2023/04/15 23:44:38;;;;;;;3.78;2.50;;;11.70;97.90;;;;;;10088985;28;20025;-55
2023/04/15 23:49:29;;;;;;;4.30;2.90;;;11.60;98.00;;;;;;10087750;28;20045;-55
2023/04/15 23:54:20;;;;;;;5.68;3.13;;;11.50;98.20;;;;;;10082037;28;20067;-51
2023/04/15 23:59:11;;;;;;;4.45;2.88;;;11.40;98.70;;;;;;10082261;28;20439;-57
